sensor_id;sensor_type;location;lat;lon;timestamp;P1;durP1;ratioP1;P2;durP2;ratioP2
3141;SDS011;1581;51.568;6.998;2023-02-28T00:01:25;12.27;;;3.80;;
3141;SDS011;1581;51.568;6.998;2023-02-28T00:03:54;7.90;;;3.70;;
3141;SDS011;1581;51.568;6.998;2023-02-28T00:06:22;6.00;;;4.20;;
3141;SDS011;1581;51.568;6.998;2023-02-28T00:08:50;5.70;;;3.60;;
3141;SDS011;1581;51.568;6.998;2023-02-28T00:11:18;8.03;;;3.30;;
3141;SDS011;1581;51.568;6.998;2023-02-28T00:13:47;6.50;;;3.57;;
3141;SDS011;1581;51.568;6.998;2023-02-28T00:16:16;6.73;;;3.40;;
3141;SDS011;1581;51.568;6.998;2023-02-28T00:18:45;5.67;;;3.50;;
3141;SDS011;1581;51.568;6.998;2023-02-28T00:21:15;5.10;;;3.17;;
3141;SDS011;1581;51.568;6.998;2023-02-28T00:23:43;7.13;;;3.90;;
3141;SDS011;1581;51.568;6.998;2023-02-28T00:26:11;7.20;;;3.07;;
3141;SDS011;1581;51.568;6.998;2023-02-28T00:28:39;9.03;;;4.00;;
3141;SDS011;1581;51.568;6.998;2023-02-28T00:31:07;5.97;;;3.30;;
3141;SDS011;1581;51.568;6.998;2023-02-28T00:33:34;6.43;;;3.40;;
3141;SDS011;1581;51.568;6.998;2023-02-28T00:36:03;5.77;;;3.50;;
3141;SDS011;1581;51.568;6.998;2023-02-28T00:38:34;5.47;;;3.53;;
3141;SDS011;1581;51.568;6.998;2023-02-28T00:41:03;5.20;;;2.97;;
3141;SDS011;1581;51.568;6.998;2023-02-28T00:43:31;5.70;;;3.53;;
3141;SDS011;1581;51.568;6.998;2023-02-28T00:46:00;7.70;;;2.73;;
3141;SDS011;1581;51.568;6.998;2023-02-28T00:48:28;4.60;;;2.80;;
3141;SDS011;1581;51.568;6.998;2023-02-28T00:50:57;4.90;;;2.80;;
3141;SDS011;1581;51.568;6.998;2023-02-28T00:53:24;2.50;;;2.30;;
3141;SDS011;1581;51.568;6.998;2023-02-28T00:55:53;4.07;;;2.37;;
3141;SDS011;1581;51.568;6.998;2023-02-28T00:58:21;6.20;;;2.50;;
3141;SDS011;1581;51.568;6.998;2023-02-28T01:00:50;5.57;;;2.60;;
3141;SDS011;1581;51.568;6.998;2023-02-28T01:03:19;4.10;;;2.80;;
3141;SDS011;1581;51.568;6.998;2023-02-28T01:05:48;9.00;;;3.83;;
3141;SDS011;1581;51.568;6.998;2023-02-28T01:08:18;6.60;;;2.63;;
3141;SDS011;1581;51.568;6.998;2023-02-28T01:10:46;4.40;;;3.57;;
3141;SDS011;1581;51.568;6.998;2023-02-28T01:13:15;11.47;;;4.60;;
3141;SDS011;1581;51.568;6.998;2023-02-28T01:15:43;9.23;;;3.87;;
3141;SDS011;1581;51.568;6.998;2023-02-28T01:18:15;8.30;;;3.63;;
3141;SDS011;1581;51.568;6.998;2023-02-28T01:20:43;7.97;;;3.53;;
3141;SDS011;1581;51.568;6.998;2023-02-28T01:23:11;4.50;;;2.97;;
3141;SDS011;1581;51.568;6.998;2023-02-28T01:25:39;6.67;;;3.50;;
3141;SDS011;1581;51.568;6.998;2023-02-28T01:28:06;6.23;;;3.00;;
3141;SDS011;1581;51.568;6.998;2023-02-28T01:30:35;4.37;;;2.83;;
3141;SDS011;1581;51.568;6.998;2023-02-28T01:33:03;6.70;;;2.70;;
3141;SDS011;1581;51.568;6.998;2023-02-28T01:35:32;9.20;;;2.27;;
3141;SDS011;1581;51.568;6.998;2023-02-28T01:38:00;4.83;;;2.57;;
3141;SDS011;1581;51.568;6.998;2023-02-28T01:40:28;4.87;;;2.10;;
3141;SDS011;1581;51.568;6.998;2023-02-28T01:42:55;4.80;;;2.27;;
3141;SDS011;1581;51.568;6.998;2023-02-28T01:45:24;3.17;;;1.93;;
3141;SDS011;1581;51.568;6.998;2023-02-28T01:47:57;3.50;;;2.10;;
3141;SDS011;1581;51.568;6.998;2023-02-28T01:50:31;3.53;;;2.23;;
3141;SDS011;1581;51.568;6.998;2023-02-28T01:53:06;2.33;;;2.13;;
3141;SDS011;1581;51.568;6.998;2023-02-28T01:55:38;3.37;;;2.00;;
3141;SDS011;1581;51.568;6.998;2023-02-28T01:58:07;4.00;;;2.10;;
3141;SDS011;1581;51.568;6.998;2023-02-28T02:00:35;3.67;;;2.27;;
3141;SDS011;1581;51.568;6.998;2023-02-28T02:03:08;2.60;;;2.40;;
3141;SDS011;1581;51.568;6.998;2023-02-28T02:05:38;3.17;;;1.90;;
3141;SDS011;1581;51.568;6.998;2023-02-28T02:08:08;2.93;;;2.00;;
3141;SDS011;1581;51.568;6.998;2023-02-28T02:10:41;3.47;;;1.70;;
3141;SDS011;1581;51.568;6.998;2023-02-28T02:13:14;3.33;;;1.80;;
3141;SDS011;1581;51.568;6.998;2023-02-28T02:15:58;8.10;;;2.50;;
3141;SDS011;1581;51.568;6.998;2023-02-28T02:18:37;6.43;;;2.20;;
3141;SDS011;1581;51.568;6.998;2023-02-28T02:28:05;3.93;;;2.60;;
3141;SDS011;1581;51.568;6.998;2023-02-28T02:31:17;5.70;;;2.30;;
3141;SDS011;1581;51.568;6.998;2023-02-28T02:37:23;3.80;;;2.30;;
3141;SDS011;1581;51.568;6.998;2023-02-28T02:39:59;2.20;;;1.80;;
3141;SDS011;1581;51.568;6.998;2023-02-28T02:42:38;6.37;;;2.60;;
3141;SDS011;1581;51.568;6.998;2023-02-28T02:45:14;3.57;;;2.00;;
3141;SDS011;1581;51.568;6.998;2023-02-28T02:47:48;2.73;;;2.20;;
3141;SDS011;1581;51.568;6.998;2023-02-28T02:50:21;2.20;;;1.87;;
3141;SDS011;1581;51.568;6.998;2023-02-28T02:52:54;3.07;;;2.30;;
3141;SDS011;1581;51.568;6.998;2023-02-28T02:55:26;3.37;;;2.37;;
3141;SDS011;1581;51.568;6.998;2023-02-28T02:57:54;4.17;;;2.73;;
3141;SDS011;1581;51.568;6.998;2023-02-28T03:00:27;4.53;;;2.60;;
3141;SDS011;1581;51.568;6.998;2023-02-28T03:03:00;5.70;;;3.10;;
3141;SDS011;1581;51.568;6.998;2023-02-28T03:05:32;3.67;;;2.73;;
3141;SDS011;1581;51.568;6.998;2023-02-28T03:08:08;4.67;;;2.97;;
3141;SDS011;1581;51.568;6.998;2023-02-28T03:10:40;6.63;;;2.83;;
3141;SDS011;1581;51.568;6.998;2023-02-28T03:16:48;3.30;;;2.60;;
3141;SDS011;1581;51.568;6.998;2023-02-28T03:19:46;3.07;;;1.97;;
3141;SDS011;1581;51.568;6.998;2023-02-28T03:22:43;2.43;;;2.23;;
3141;SDS011;1581;51.568;6.998;2023-02-28T03:25:20;2.90;;;2.10;;
3141;SDS011;1581;51.568;6.998;2023-02-28T03:28:00;5.00;;;2.20;;
3141;SDS011;1581;51.568;6.998;2023-02-28T03:30:37;2.37;;;2.17;;
3141;SDS011;1581;51.568;6.998;2023-02-28T03:33:12;3.30;;;2.60;;
3141;SDS011;1581;51.568;6.998;2023-02-28T03:35:45;4.93;;;2.27;;
3141;SDS011;1581;51.568;6.998;2023-02-28T03:38:21;3.03;;;2.20;;
3141;SDS011;1581;51.568;6.998;2023-02-28T03:40:57;2.97;;;2.23;;
3141;SDS011;1581;51.568;6.998;2023-02-28T03:43:34;2.10;;;1.87;;
3141;SDS011;1581;51.568;6.998;2023-02-28T03:46:07;2.57;;;2.10;;
3141;SDS011;1581;51.568;6.998;2023-02-28T03:48:40;2.10;;;2.00;;
3141;SDS011;1581;51.568;6.998;2023-02-28T03:51:13;4.87;;;2.37;;
3141;SDS011;1581;51.568;6.998;2023-02-28T03:53:47;4.17;;;2.20;;
3141;SDS011;1581;51.568;6.998;2023-02-28T03:56:20;3.57;;;2.83;;
3141;SDS011;1581;51.568;6.998;2023-02-28T03:58:55;3.23;;;2.60;;
3141;SDS011;1581;51.568;6.998;2023-02-28T04:01:30;3.50;;;2.50;;
3141;SDS011;1581;51.568;6.998;2023-02-28T04:04:03;4.83;;;2.70;;
3141;SDS011;1581;51.568;6.998;2023-02-28T04:06:32;4.70;;;2.67;;
3141;SDS011;1581;51.568;6.998;2023-02-28T04:09:02;2.50;;;2.27;;
3141;SDS011;1581;51.568;6.998;2023-02-28T04:11:33;3.00;;;2.60;;
3141;SDS011;1581;51.568;6.998;2023-02-28T04:14:04;4.20;;;2.33;;
3141;SDS011;1581;51.568;6.998;2023-02-28T04:16:34;3.90;;;2.43;;
3141;SDS011;1581;51.568;6.998;2023-02-28T04:19:03;4.33;;;1.93;;
3141;SDS011;1581;51.568;6.998;2023-02-28T04:21:33;2.90;;;2.20;;
3141;SDS011;1581;51.568;6.998;2023-02-28T04:24:06;2.83;;;1.80;;
3141;SDS011;1581;51.568;6.998;2023-02-28T04:26:39;10.30;;;2.20;;
3141;SDS011;1581;51.568;6.998;2023-02-28T04:29:09;2.60;;;1.90;;
3141;SDS011;1581;51.568;6.998;2023-02-28T04:31:39;2.27;;;2.07;;
3141;SDS011;1581;51.568;6.998;2023-02-28T04:34:07;2.90;;;1.77;;
3141;SDS011;1581;51.568;6.998;2023-02-28T04:36:35;4.03;;;2.73;;
3141;SDS011;1581;51.568;6.998;2023-02-28T04:39:03;2.70;;;1.80;;
3141;SDS011;1581;51.568;6.998;2023-02-28T04:41:33;2.93;;;1.43;;
3141;SDS011;1581;51.568;6.998;2023-02-28T04:44:00;2.70;;;1.60;;
3141;SDS011;1581;51.568;6.998;2023-02-28T04:46:30;1.33;;;1.23;;
3141;SDS011;1581;51.568;6.998;2023-02-28T04:48:58;8.03;;;2.00;;
3141;SDS011;1581;51.568;6.998;2023-02-28T04:51:25;3.30;;;2.07;;
3141;SDS011;1581;51.568;6.998;2023-02-28T04:53:53;2.43;;;1.93;;
3141;SDS011;1581;51.568;6.998;2023-02-28T04:56:23;3.07;;;1.80;;
3141;SDS011;1581;51.568;6.998;2023-02-28T04:58:50;2.90;;;1.73;;
3141;SDS011;1581;51.568;6.998;2023-02-28T05:01:20;3.03;;;1.87;;
3141;SDS011;1581;51.568;6.998;2023-02-28T05:03:51;3.40;;;2.07;;
3141;SDS011;1581;51.568;6.998;2023-02-28T05:06:20;1.93;;;1.40;;
3141;SDS011;1581;51.568;6.998;2023-02-28T05:08:50;5.17;;;1.93;;
3141;SDS011;1581;51.568;6.998;2023-02-28T05:11:19;2.63;;;1.73;;
3141;SDS011;1581;51.568;6.998;2023-02-28T05:13:52;6.37;;;1.67;;
3141;SDS011;1581;51.568;6.998;2023-02-28T05:16:20;2.73;;;1.77;;
3141;SDS011;1581;51.568;6.998;2023-02-28T05:18:48;1.80;;;1.70;;
3141;SDS011;1581;51.568;6.998;2023-02-28T05:21:23;1.87;;;1.70;;
3141;SDS011;1581;51.568;6.998;2023-02-28T05:23:55;2.13;;;1.40;;
3141;SDS011;1581;51.568;6.998;2023-02-28T05:26:25;2.50;;;2.30;;
3141;SDS011;1581;51.568;6.998;2023-02-28T05:28:54;2.90;;;1.80;;
3141;SDS011;1581;51.568;6.998;2023-02-28T05:31:22;2.00;;;1.70;;
3141;SDS011;1581;51.568;6.998;2023-02-28T05:33:50;2.30;;;1.43;;
3141;SDS011;1581;51.568;6.998;2023-02-28T05:36:18;7.97;;;1.87;;
3141;SDS011;1581;51.568;6.998;2023-02-28T05:38:48;3.40;;;1.83;;
3141;SDS011;1581;51.568;6.998;2023-02-28T05:41:17;3.97;;;2.33;;
3141;SDS011;1581;51.568;6.998;2023-02-28T05:43:47;5.40;;;1.70;;
3141;SDS011;1581;51.568;6.998;2023-02-28T05:46:15;3.53;;;2.40;;
3141;SDS011;1581;51.568;6.998;2023-02-28T05:48:45;2.80;;;2.07;;
3141;SDS011;1581;51.568;6.998;2023-02-28T05:51:14;5.53;;;2.17;;
3141;SDS011;1581;51.568;6.998;2023-02-28T05:53:43;2.90;;;2.27;;
3141;SDS011;1581;51.568;6.998;2023-02-28T05:56:10;1.93;;;1.60;;
3141;SDS011;1581;51.568;6.998;2023-02-28T05:58:38;5.60;;;1.87;;
3141;SDS011;1581;51.568;6.998;2023-02-28T06:01:31;1.70;;;1.60;;
3141;SDS011;1581;51.568;6.998;2023-02-28T06:04:00;2.77;;;2.10;;
3141;SDS011;1581;51.568;6.998;2023-02-28T06:06:30;3.70;;;2.00;;
3141;SDS011;1581;51.568;6.998;2023-02-28T06:08:59;2.83;;;1.83;;
3141;SDS011;1581;51.568;6.998;2023-02-28T06:11:27;5.10;;;2.23;;
3141;SDS011;1581;51.568;6.998;2023-02-28T06:13:55;4.10;;;2.53;;
3141;SDS011;1581;51.568;6.998;2023-02-28T06:16:24;2.77;;;2.40;;
3141;SDS011;1581;51.568;6.998;2023-02-28T06:18:56;3.37;;;2.40;;
3141;SDS011;1581;51.568;6.998;2023-02-28T06:21:25;3.67;;;2.50;;
3141;SDS011;1581;51.568;6.998;2023-02-28T06:23:53;2.70;;;1.97;;
3141;SDS011;1581;51.568;6.998;2023-02-28T06:26:22;2.40;;;2.20;;
3141;SDS011;1581;51.568;6.998;2023-02-28T06:28:51;4.47;;;2.10;;
3141;SDS011;1581;51.568;6.998;2023-02-28T06:31:18;4.27;;;2.30;;
3141;SDS011;1581;51.568;6.998;2023-02-28T06:33:48;3.03;;;2.47;;
3141;SDS011;1581;51.568;6.998;2023-02-28T06:36:16;2.90;;;2.43;;
3141;SDS011;1581;51.568;6.998;2023-02-28T06:38:45;4.27;;;2.23;;
3141;SDS011;1581;51.568;6.998;2023-02-28T06:41:16;4.53;;;2.33;;
3141;SDS011;1581;51.568;6.998;2023-02-28T06:43:44;2.50;;;2.30;;
3141;SDS011;1581;51.568;6.998;2023-02-28T06:46:12;2.83;;;2.20;;
3141;SDS011;1581;51.568;6.998;2023-02-28T06:48:41;5.70;;;2.27;;
3141;SDS011;1581;51.568;6.998;2023-02-28T06:51:12;4.73;;;2.40;;
3141;SDS011;1581;51.568;6.998;2023-02-28T06:53:42;3.40;;;2.50;;
3141;SDS011;1581;51.568;6.998;2023-02-28T06:56:11;3.13;;;2.10;;
3141;SDS011;1581;51.568;6.998;2023-02-28T06:58:40;2.53;;;2.00;;
3141;SDS011;1581;51.568;6.998;2023-02-28T07:01:09;2.40;;;2.20;;
3141;SDS011;1581;51.568;6.998;2023-02-28T07:03:36;7.23;;;2.13;;
3141;SDS011;1581;51.568;6.998;2023-02-28T07:06:04;4.80;;;1.93;;
3141;SDS011;1581;51.568;6.998;2023-02-28T07:08:34;2.80;;;2.40;;
3141;SDS011;1581;51.568;6.998;2023-02-28T07:11:02;3.93;;;2.90;;
3141;SDS011;1581;51.568;6.998;2023-02-28T07:13:30;5.80;;;2.50;;
3141;SDS011;1581;51.568;6.998;2023-02-28T07:16:05;4.03;;;2.90;;
3141;SDS011;1581;51.568;6.998;2023-02-28T07:18:36;3.77;;;2.57;;
3141;SDS011;1581;51.568;6.998;2023-02-28T07:21:04;6.17;;;2.30;;
3141;SDS011;1581;51.568;6.998;2023-02-28T07:23:35;4.00;;;2.80;;
3141;SDS011;1581;51.568;6.998;2023-02-28T07:26:04;3.50;;;2.90;;
3141;SDS011;1581;51.568;6.998;2023-02-28T07:28:33;3.20;;;2.40;;
3141;SDS011;1581;51.568;6.998;2023-02-28T07:31:04;4.90;;;2.37;;
3141;SDS011;1581;51.568;6.998;2023-02-28T07:33:35;3.97;;;2.87;;
3141;SDS011;1581;51.568;6.998;2023-02-28T07:36:03;4.17;;;2.23;;
3141;SDS011;1581;51.568;6.998;2023-02-28T07:38:35;2.83;;;2.50;;
3141;SDS011;1581;51.568;6.998;2023-02-28T07:41:05;2.87;;;2.63;;
3141;SDS011;1581;51.568;6.998;2023-02-28T07:43:33;3.70;;;2.40;;
3141;SDS011;1581;51.568;6.998;2023-02-28T07:46:11;3.27;;;2.67;;
3141;SDS011;1581;51.568;6.998;2023-02-28T07:48:42;2.80;;;2.00;;
3141;SDS011;1581;51.568;6.998;2023-02-28T07:51:10;10.50;;;2.30;;
3141;SDS011;1581;51.568;6.998;2023-02-28T07:53:40;4.30;;;2.63;;
3141;SDS011;1581;51.568;6.998;2023-02-28T07:56:07;3.00;;;2.20;;
3141;SDS011;1581;51.568;6.998;2023-02-28T07:58:36;4.73;;;2.07;;
3141;SDS011;1581;51.568;6.998;2023-02-28T08:01:06;3.40;;;2.10;;
3141;SDS011;1581;51.568;6.998;2023-02-28T08:03:36;4.13;;;2.37;;
3141;SDS011;1581;51.568;6.998;2023-02-28T08:06:06;2.40;;;2.20;;
3141;SDS011;1581;51.568;6.998;2023-02-28T08:08:43;3.03;;;2.40;;
3141;SDS011;1581;51.568;6.998;2023-02-28T08:11:10;2.43;;;1.70;;
3141;SDS011;1581;51.568;6.998;2023-02-28T08:13:39;2.37;;;2.17;;
3141;SDS011;1581;51.568;6.998;2023-02-28T08:16:09;5.40;;;2.90;;
3141;SDS011;1581;51.568;6.998;2023-02-28T08:18:39;4.83;;;2.33;;
3141;SDS011;1581;51.568;6.998;2023-02-28T08:21:07;3.00;;;2.40;;
3141;SDS011;1581;51.568;6.998;2023-02-28T08:23:35;3.93;;;1.57;;
3141;SDS011;1581;51.568;6.998;2023-02-28T08:26:05;3.57;;;1.90;;
3141;SDS011;1581;51.568;6.998;2023-02-28T08:28:33;2.60;;;1.87;;
3141;SDS011;1581;51.568;6.998;2023-02-28T08:31:08;1.83;;;1.73;;
3141;SDS011;1581;51.568;6.998;2023-02-28T08:33:38;1.67;;;1.57;;
3141;SDS011;1581;51.568;6.998;2023-02-28T08:36:07;2.07;;;1.77;;
3141;SDS011;1581;51.568;6.998;2023-02-28T08:38:35;2.10;;;1.57;;
3141;SDS011;1581;51.568;6.998;2023-02-28T08:41:06;4.13;;;2.30;;
3141;SDS011;1581;51.568;6.998;2023-02-28T08:43:38;3.67;;;2.40;;
3141;SDS011;1581;51.568;6.998;2023-02-28T08:46:06;6.37;;;2.60;;
3141;SDS011;1581;51.568;6.998;2023-02-28T08:48:37;1.93;;;1.83;;
3141;SDS011;1581;51.568;6.998;2023-02-28T08:51:05;2.80;;;1.70;;
3141;SDS011;1581;51.568;6.998;2023-02-28T08:53:35;1.63;;;1.53;;
3141;SDS011;1581;51.568;6.998;2023-02-28T08:56:06;1.23;;;1.13;;
3141;SDS011;1581;51.568;6.998;2023-02-28T08:58:35;1.43;;;1.33;;
3141;SDS011;1581;51.568;6.998;2023-02-28T09:01:07;1.40;;;1.37;;
3141;SDS011;1581;51.568;6.998;2023-02-28T09:03:37;1.23;;;1.10;;
3141;SDS011;1581;51.568;6.998;2023-02-28T09:06:07;3.83;;;1.67;;
3141;SDS011;1581;51.568;6.998;2023-02-28T09:08:36;1.30;;;1.20;;
3141;SDS011;1581;51.568;6.998;2023-02-28T09:11:06;2.50;;;1.77;;
3141;SDS011;1581;51.568;6.998;2023-02-28T09:13:34;1.43;;;1.33;;
3141;SDS011;1581;51.568;6.998;2023-02-28T09:16:03;1.30;;;1.20;;
3141;SDS011;1581;51.568;6.998;2023-02-28T09:18:34;2.07;;;1.50;;
3141;SDS011;1581;51.568;6.998;2023-02-28T09:21:03;2.57;;;1.23;;
3141;SDS011;1581;51.568;6.998;2023-02-28T09:23:32;2.20;;;1.40;;
3141;SDS011;1581;51.568;6.998;2023-02-28T09:26:00;2.27;;;1.23;;
3141;SDS011;1581;51.568;6.998;2023-02-28T09:28:29;2.00;;;1.40;;
3141;SDS011;1581;51.568;6.998;2023-02-28T09:30:57;1.73;;;1.10;;
3141;SDS011;1581;51.568;6.998;2023-02-28T09:33:25;2.07;;;1.33;;
3141;SDS011;1581;51.568;6.998;2023-02-28T09:35:57;1.30;;;1.07;;
3141;SDS011;1581;51.568;6.998;2023-02-28T09:38:27;4.20;;;1.37;;
3141;SDS011;1581;51.568;6.998;2023-02-28T09:40:56;1.50;;;1.40;;
3141;SDS011;1581;51.568;6.998;2023-02-28T09:43:28;1.33;;;1.17;;
3141;SDS011;1581;51.568;6.998;2023-02-28T09:46:02;2.60;;;1.33;;
3141;SDS011;1581;51.568;6.998;2023-02-28T09:48:41;1.37;;;1.27;;
3141;SDS011;1581;51.568;6.998;2023-02-28T09:51:15;1.20;;;1.10;;
3141;SDS011;1581;51.568;6.998;2023-02-28T09:54:00;1.13;;;1.03;;
3141;SDS011;1581;51.568;6.998;2023-02-28T09:56:30;1.73;;;1.37;;
3141;SDS011;1581;51.568;6.998;2023-02-28T09:59:05;1.73;;;1.30;;
3141;SDS011;1581;51.568;6.998;2023-02-28T10:01:45;1.33;;;1.00;;
3141;SDS011;1581;51.568;6.998;2023-02-28T10:04:30;2.60;;;1.30;;
3141;SDS011;1581;51.568;6.998;2023-02-28T10:07:11;2.00;;;1.50;;
3141;SDS011;1581;51.568;6.998;2023-02-28T10:09:51;1.20;;;1.20;;
3141;SDS011;1581;51.568;6.998;2023-02-28T10:12:23;1.80;;;1.50;;
3141;SDS011;1581;51.568;6.998;2023-02-28T10:14:56;5.77;;;1.90;;
3141;SDS011;1581;51.568;6.998;2023-02-28T10:17:29;4.23;;;1.67;;
3141;SDS011;1581;51.568;6.998;2023-02-28T10:20:06;3.37;;;1.83;;
3141;SDS011;1581;51.568;6.998;2023-02-28T10:22:40;2.73;;;1.37;;
3141;SDS011;1581;51.568;6.998;2023-02-28T10:25:20;2.40;;;1.57;;
3141;SDS011;1581;51.568;6.998;2023-02-28T10:27:51;3.10;;;1.67;;
3141;SDS011;1581;51.568;6.998;2023-02-28T10:30:22;2.17;;;1.10;;
3141;SDS011;1581;51.568;6.998;2023-02-28T10:32:50;2.27;;;1.60;;
3141;SDS011;1581;51.568;6.998;2023-02-28T10:35:20;3.20;;;1.40;;
3141;SDS011;1581;51.568;6.998;2023-02-28T10:37:50;1.50;;;1.40;;
3141;SDS011;1581;51.568;6.998;2023-02-28T10:40:29;1.60;;;1.50;;
3141;SDS011;1581;51.568;6.998;2023-02-28T10:43:01;1.77;;;1.53;;
3141;SDS011;1581;51.568;6.998;2023-02-28T10:45:31;2.33;;;1.60;;
3141;SDS011;1581;51.568;6.998;2023-02-28T10:48:02;5.30;;;1.07;;
3141;SDS011;1581;51.568;6.998;2023-02-28T10:50:52;2.07;;;1.20;;
3141;SDS011;1581;51.568;6.998;2023-02-28T10:53:25;1.47;;;1.37;;
3141;SDS011;1581;51.568;6.998;2023-02-28T10:55:59;1.80;;;0.70;;
3141;SDS011;1581;51.568;6.998;2023-02-28T10:58:30;3.40;;;0.93;;
3141;SDS011;1581;51.568;6.998;2023-02-28T11:01:15;3.70;;;1.63;;
3141;SDS011;1581;51.568;6.998;2023-02-28T11:03:44;1.87;;;1.13;;
3141;SDS011;1581;51.568;6.998;2023-02-28T11:06:14;1.20;;;1.10;;
3141;SDS011;1581;51.568;6.998;2023-02-28T11:08:46;2.00;;;1.60;;
3141;SDS011;1581;51.568;6.998;2023-02-28T11:11:17;1.37;;;1.10;;
3141;SDS011;1581;51.568;6.998;2023-02-28T11:13:47;1.53;;;1.43;;
3141;SDS011;1581;51.568;6.998;2023-02-28T11:16:20;7.60;;;1.20;;
3141;SDS011;1581;51.568;6.998;2023-02-28T11:18:49;1.50;;;1.40;;
3141;SDS011;1581;51.568;6.998;2023-02-28T11:21:21;1.30;;;1.03;;
3141;SDS011;1581;51.568;6.998;2023-02-28T11:23:54;3.83;;;1.10;;
3141;SDS011;1581;51.568;6.998;2023-02-28T11:26:40;2.20;;;1.13;;
3141;SDS011;1581;51.568;6.998;2023-02-28T11:29:12;3.63;;;1.43;;
3141;SDS011;1581;51.568;6.998;2023-02-28T11:34:43;1.13;;;1.00;;
3141;SDS011;1581;51.568;6.998;2023-02-28T11:37:15;2.00;;;1.07;;
3141;SDS011;1581;51.568;6.998;2023-02-28T11:39:45;3.17;;;1.50;;
3141;SDS011;1581;51.568;6.998;2023-02-28T11:45:37;1.20;;;1.10;;
3141;SDS011;1581;51.568;6.998;2023-02-28T11:48:27;1.53;;;1.20;;
3141;SDS011;1581;51.568;6.998;2023-02-28T11:51:04;4.90;;;1.93;;
3141;SDS011;1581;51.568;6.998;2023-02-28T11:53:47;1.30;;;1.10;;
3141;SDS011;1581;51.568;6.998;2023-02-28T11:56:39;6.60;;;1.50;;
3141;SDS011;1581;51.568;6.998;2023-02-28T11:59:26;1.63;;;1.33;;
3141;SDS011;1581;51.568;6.998;2023-02-28T12:02:19;4.57;;;1.90;;
3141;SDS011;1581;51.568;6.998;2023-02-28T12:04:54;3.03;;;1.60;;
3141;SDS011;1581;51.568;6.998;2023-02-28T12:07:38;3.60;;;2.47;;
3141;SDS011;1581;51.568;6.998;2023-02-28T12:10:20;6.43;;;3.03;;
3141;SDS011;1581;51.568;6.998;2023-02-28T12:12:55;4.60;;;2.20;;
3141;SDS011;1581;51.568;6.998;2023-02-28T12:15:55;2.27;;;1.30;;
3141;SDS011;1581;51.568;6.998;2023-02-28T12:18:54;2.90;;;1.30;;
3141;SDS011;1581;51.568;6.998;2023-02-28T12:21:39;2.10;;;1.33;;
3141;SDS011;1581;51.568;6.998;2023-02-28T12:24:28;2.83;;;1.60;;
3141;SDS011;1581;51.568;6.998;2023-02-28T12:27:27;2.23;;;1.53;;
3141;SDS011;1581;51.568;6.998;2023-02-28T12:30:02;2.00;;;1.53;;
3141;SDS011;1581;51.568;6.998;2023-02-28T12:32:33;1.80;;;1.73;;
3141;SDS011;1581;51.568;6.998;2023-02-28T12:35:11;2.50;;;2.00;;
3141;SDS011;1581;51.568;6.998;2023-02-28T12:37:45;3.50;;;2.00;;
3141;SDS011;1581;51.568;6.998;2023-02-28T12:40:21;2.70;;;1.63;;
3141;SDS011;1581;51.568;6.998;2023-02-28T12:42:54;1.60;;;1.50;;
3141;SDS011;1581;51.568;6.998;2023-02-28T12:45:27;1.70;;;1.60;;
3141;SDS011;1581;51.568;6.998;2023-02-28T12:48:08;1.77;;;1.50;;
3141;SDS011;1581;51.568;6.998;2023-02-28T12:50:40;1.70;;;1.60;;
3141;SDS011;1581;51.568;6.998;2023-02-28T12:53:12;2.20;;;1.43;;
3141;SDS011;1581;51.568;6.998;2023-02-28T12:55:54;3.03;;;1.70;;
3141;SDS011;1581;51.568;6.998;2023-02-28T12:58:33;4.50;;;1.70;;
3141;SDS011;1581;51.568;6.998;2023-02-28T13:04:27;1.77;;;1.40;;
3141;SDS011;1581;51.568;6.998;2023-02-28T13:07:23;2.33;;;2.13;;
3141;SDS011;1581;51.568;6.998;2023-02-28T13:10:17;2.67;;;1.50;;
3141;SDS011;1581;51.568;6.998;2023-02-28T13:12:49;2.20;;;1.40;;
3141;SDS011;1581;51.568;6.998;2023-02-28T13:15:19;2.30;;;1.33;;
3141;SDS011;1581;51.568;6.998;2023-02-28T13:17:53;2.40;;;1.53;;
3141;SDS011;1581;51.568;6.998;2023-02-28T13:20:24;1.53;;;1.40;;
3141;SDS011;1581;51.568;6.998;2023-02-28T13:22:58;3.00;;;1.53;;
3141;SDS011;1581;51.568;6.998;2023-02-28T13:35:14;3.50;;;1.77;;
3141;SDS011;1581;51.568;6.998;2023-02-28T13:44:15;1.40;;;1.30;;
3141;SDS011;1581;51.568;6.998;2023-02-28T13:49:47;1.37;;;1.20;;
3141;SDS011;1581;51.568;6.998;2023-02-28T13:52:18;1.50;;;1.40;;
3141;SDS011;1581;51.568;6.998;2023-02-28T13:57:58;5.30;;;1.00;;
3141;SDS011;1581;51.568;6.998;2023-02-28T14:01:05;1.87;;;1.43;;
3141;SDS011;1581;51.568;6.998;2023-02-28T14:04:02;2.40;;;1.80;;
3141;SDS011;1581;51.568;6.998;2023-02-28T14:07:18;1.88;;;1.42;;
3141;SDS011;1581;51.568;6.998;2023-02-28T14:09:52;1.90;;;1.55;;
3141;SDS011;1581;51.568;6.998;2023-02-28T14:15:39;1.55;;;1.45;;
3141;SDS011;1581;51.568;6.998;2023-02-28T14:18:23;4.40;;;1.85;;
3141;SDS011;1581;51.568;6.998;2023-02-28T14:20:57;1.40;;;1.13;;
3141;SDS011;1581;51.568;6.998;2023-02-28T14:23:40;1.83;;;1.08;;
3141;SDS011;1581;51.568;6.998;2023-02-28T14:26:32;1.30;;;1.20;;
3141;SDS011;1581;51.568;6.998;2023-02-28T14:29:38;4.45;;;1.25;;
3141;SDS011;1581;51.568;6.998;2023-02-28T14:32:58;3.25;;;1.30;;
3141;SDS011;1581;51.568;6.998;2023-02-28T14:35:45;2.17;;;1.05;;
3141;SDS011;1581;51.568;6.998;2023-02-28T14:38:40;1.48;;;1.40;;
3141;SDS011;1581;51.568;6.998;2023-02-28T14:41:17;1.48;;;1.30;;
3141;SDS011;1581;51.568;6.998;2023-02-28T14:43:50;1.50;;;1.40;;
3141;SDS011;1581;51.568;6.998;2023-02-28T14:46:24;10.95;;;1.73;;
3141;SDS011;1581;51.568;6.998;2023-02-28T14:48:56;1.30;;;1.30;;
3141;SDS011;1581;51.568;6.998;2023-02-28T14:51:24;2.72;;;1.40;;
3141;SDS011;1581;51.568;6.998;2023-02-28T14:53:56;1.48;;;1.08;;
3141;SDS011;1581;51.568;6.998;2023-02-28T14:56:27;6.03;;;1.38;;
3141;SDS011;1581;51.568;6.998;2023-02-28T14:59:02;1.63;;;1.50;;
3141;SDS011;1581;51.568;6.998;2023-02-28T15:01:32;1.42;;;1.33;;
3141;SDS011;1581;51.568;6.998;2023-02-28T15:04:01;1.42;;;1.40;;
3141;SDS011;1581;51.568;6.998;2023-02-28T15:06:31;2.15;;;1.70;;
3141;SDS011;1581;51.568;6.998;2023-02-28T15:09:10;1.60;;;1.50;;
3141;SDS011;1581;51.568;6.998;2023-02-28T15:11:42;2.63;;;1.50;;
3141;SDS011;1581;51.568;6.998;2023-02-28T15:14:15;2.45;;;1.63;;
3141;SDS011;1581;51.568;6.998;2023-02-28T15:16:49;1.50;;;1.40;;
3141;SDS011;1581;51.568;6.998;2023-02-28T15:19:23;2.45;;;1.50;;
3141;SDS011;1581;51.568;6.998;2023-02-28T15:21:56;1.40;;;1.30;;
3141;SDS011;1581;51.568;6.998;2023-02-28T15:24:35;2.33;;;1.90;;
3141;SDS011;1581;51.568;6.998;2023-02-28T15:27:07;1.63;;;1.52;;
3141;SDS011;1581;51.568;6.998;2023-02-28T15:29:42;1.70;;;1.60;;
3141;SDS011;1581;51.568;6.998;2023-02-28T15:32:27;1.48;;;1.45;;
3141;SDS011;1581;51.568;6.998;2023-02-28T15:34:58;2.78;;;1.80;;
3141;SDS011;1581;51.568;6.998;2023-02-28T15:37:48;2.22;;;1.83;;
3141;SDS011;1581;51.568;6.998;2023-02-28T15:40:22;1.33;;;1.30;;
3141;SDS011;1581;51.568;6.998;2023-02-28T15:42:57;1.75;;;1.35;;
3141;SDS011;1581;51.568;6.998;2023-02-28T15:45:34;2.33;;;1.50;;
3141;SDS011;1581;51.568;6.998;2023-02-28T15:48:12;1.83;;;1.73;;
3141;SDS011;1581;51.568;6.998;2023-02-28T15:50:44;2.45;;;1.80;;
3141;SDS011;1581;51.568;6.998;2023-02-28T15:53:18;5.00;;;1.77;;
3141;SDS011;1581;51.568;6.998;2023-02-28T15:55:58;2.50;;;2.08;;
3141;SDS011;1581;51.568;6.998;2023-02-28T15:58:29;1.98;;;1.77;;
3141;SDS011;1581;51.568;6.998;2023-02-28T16:01:08;4.03;;;1.60;;
3141;SDS011;1581;51.568;6.998;2023-02-28T16:03:49;2.25;;;2.00;;
3141;SDS011;1581;51.568;6.998;2023-02-28T16:06:28;4.40;;;2.30;;
3141;SDS011;1581;51.568;6.998;2023-02-28T16:09:05;3.47;;;2.00;;
3141;SDS011;1581;51.568;6.998;2023-02-28T16:11:37;1.80;;;1.70;;
3141;SDS011;1581;51.568;6.998;2023-02-28T16:14:15;4.63;;;2.67;;
3141;SDS011;1581;51.568;6.998;2023-02-28T16:16:46;3.10;;;1.90;;
3141;SDS011;1581;51.568;6.998;2023-02-28T16:19:18;3.60;;;1.90;;
3141;SDS011;1581;51.568;6.998;2023-02-28T16:21:46;4.00;;;1.70;;
3141;SDS011;1581;51.568;6.998;2023-02-28T16:24:14;1.77;;;1.57;;
3141;SDS011;1581;51.568;6.998;2023-02-28T16:26:42;4.30;;;1.90;;
3141;SDS011;1581;51.568;6.998;2023-02-28T16:29:23;5.47;;;2.37;;
3141;SDS011;1581;51.568;6.998;2023-02-28T16:31:54;3.03;;;1.90;;
3141;SDS011;1581;51.568;6.998;2023-02-28T16:34:24;2.90;;;2.47;;
3141;SDS011;1581;51.568;6.998;2023-02-28T16:36:52;8.43;;;2.27;;
3141;SDS011;1581;51.568;6.998;2023-02-28T16:39:20;5.40;;;3.07;;
3141;SDS011;1581;51.568;6.998;2023-02-28T16:41:48;3.03;;;2.70;;